sensor_id;sensor_type;location;lat;lon;timestamp;pressure;altitude;pressure_sealevel;temperature;humidity
44675;BME280;30388;52.038;-1.478;2022-12-18T00:01:31;64609.74;;;-0.05;100.00
44675;BME280;30388;52.038;-1.478;2022-12-18T00:04:00;64661.10;;;0.39;100.00
44675;BME280;30388;52.038;-1.478;2022-12-18T00:06:29;64718.22;;;0.90;100.00
44675;BME280;30388;52.038;-1.478;2022-12-18T00:08:57;64673.43;;;0.77;100.00
44675;BME280;30388;52.038;-1.478;2022-12-18T00:11:29;64635.57;;;0.29;100.00
44675;BME280;30388;52.038;-1.478;2022-12-18T00:13:58;64633.52;;;0.25;100.00
44675;BME280;30388;52.038;-1.478;2022-12-18T00:16:28;64515.59;;;-0.49;100.00
44675;BME280;30388;52.038;-1.478;2022-12-18T00:18:56;64438.39;;;-1.26;100.00
44675;BME280;30388;52.038;-1.478;2022-12-18T00:21:24;64452.88;;;-1.08;100.00
44675;BME280;30388;52.038;-1.478;2022-12-18T00:23:51;64470.72;;;-1.08;100.00
44675;BME280;30388;52.038;-1.478;2022-12-18T00:26:22;64456.02;;;-1.53;100.00
44675;BME280;30388;52.038;-1.478;2022-12-18T00:28:50;64430.13;;;-1.37;100.00
44675;BME280;30388;52.038;-1.478;2022-12-18T00:31:20;64464.97;;;-1.13;100.00
44675;BME280;30388;52.038;-1.478;2022-12-18T00:33:48;64485.63;;;-1.14;100.00
44675;BME280;30388;52.038;-1.478;2022-12-18T00:36:17;64507.98;;;-0.86;100.00
44675;BME280;30388;52.038;-1.478;2022-12-18T00:38:46;64541.35;;;-0.92;100.00
44675;BME280;30388;52.038;-1.478;2022-12-18T00:41:15;64451.21;;;-1.32;100.00
44675;BME280;30388;52.038;-1.478;2022-12-18T00:43:42;64484.84;;;-0.89;100.00
44675;BME280;30388;52.038;-1.478;2022-12-18T00:46:11;64520.13;;;-0.70;100.00
44675;BME280;30388;52.038;-1.478;2022-12-18T00:48:38;64496.40;;;-1.23;100.00
44675;BME280;30388;52.038;-1.478;2022-12-18T00:51:05;64491.68;;;-0.80;100.00
44675;BME280;30388;52.038;-1.478;2022-12-18T00:53:32;64494.18;;;-1.03;100.00
44675;BME280;30388;52.038;-1.478;2022-12-18T00:56:02;64503.70;;;-0.64;100.00
44675;BME280;30388;52.038;-1.478;2022-12-18T00:58:29;64417.12;;;-1.53;100.00
44675;BME280;30388;52.038;-1.478;2022-12-18T01:00:57;64424.53;;;-1.43;100.00
44675;BME280;30388;52.038;-1.478;2022-12-18T01:03:24;64374.12;;;-1.86;100.00
44675;BME280;30388;52.038;-1.478;2022-12-18T01:05:53;64376.15;;;-1.57;100.00
44675;BME280;30388;52.038;-1.478;2022-12-18T01:08:20;64364.92;;;-1.72;100.00
44675;BME280;30388;52.038;-1.478;2022-12-18T01:10:47;64321.19;;;-2.27;100.00
44675;BME280;30388;52.038;-1.478;2022-12-18T01:13:15;64319.70;;;-2.29;100.00
44675;BME280;30388;52.038;-1.478;2022-12-18T01:15:49;64359.55;;;-1.79;100.00
44675;BME280;30388;52.038;-1.478;2022-12-18T01:18:17;64338.16;;;-2.06;100.00
44675;BME280;30388;52.038;-1.478;2022-12-18T01:20:44;64446.05;;;-1.16;100.00
44675;BME280;30388;52.038;-1.478;2022-12-18T01:23:11;64464.46;;;-0.93;100.00
44675;BME280;30388;52.038;-1.478;2022-12-18T01:25:40;64420.35;;;-1.49;100.00
44675;BME280;30388;52.038;-1.478;2022-12-18T01:28:08;64354.61;;;-1.85;100.00
44675;BME280;30388;52.038;-1.478;2022-12-18T01:30:35;64454.13;;;-1.05;100.00
44675;BME280;30388;52.038;-1.478;2022-12-18T01:33:04;64524.85;;;-0.64;100.00
44675;BME280;30388;52.038;-1.478;2022-12-18T01:35:31;64533.93;;;-0.53;100.00
44675;BME280;30388;52.038;-1.478;2022-12-18T01:37:58;64532.47;;;-0.55;100.00
44675;BME280;30388;52.038;-1.478;2022-12-18T01:40:26;64478.91;;;-0.74;100.00
44675;BME280;30388;52.038;-1.478;2022-12-18T01:42:53;64465.08;;;-1.14;100.00
44675;BME280;30388;52.038;-1.478;2022-12-18T01:45:25;64465.15;;;-0.91;100.00
44675;BME280;30388;52.038;-1.478;2022-12-18T01:47:56;64427.77;;;-1.40;100.00
44675;BME280;30388;52.038;-1.478;2022-12-18T01:50:30;64505.41;;;-0.89;100.00
44675;BME280;30388;52.038;-1.478;2022-12-18T01:53:01;64443.48;;;-1.42;100.00
44675;BME280;30388;52.038;-1.478;2022-12-18T01:55:32;64424.83;;;-1.44;100.00
44675;BME280;30388;52.038;-1.478;2022-12-18T01:58:02;64405.06;;;-1.69;100.00
44675;BME280;30388;52.038;-1.478;2022-12-18T02:00:31;64407.37;;;-1.44;100.00
44675;BME280;30388;52.038;-1.478;2022-12-18T02:02:58;64445.89;;;-1.17;100.00
44675;BME280;30388;52.038;-1.478;2022-12-18T02:05:35;64479.54;;;-0.73;100.00
44675;BME280;30388;52.038;-1.478;2022-12-18T02:08:10;64505.22;;;-0.62;100.00
44675;BME280;30388;52.038;-1.478;2022-12-18T02:10:46;64543.65;;;-0.40;100.00
44675;BME280;30388;52.038;-1.478;2022-12-18T02:13:22;64519.04;;;-0.71;100.00
44675;BME280;30388;52.038;-1.478;2022-12-18T02:16:01;64521.32;;;-0.91;100.00
44675;BME280;30388;52.038;-1.478;2022-12-18T02:18:35;64491.43;;;-0.80;100.00
44675;BME280;30388;52.038;-1.478;2022-12-18T02:21:12;64445.10;;;-1.66;100.00
44675;BME280;30388;52.038;-1.478;2022-12-18T02:23:50;64452.54;;;-1.08;100.00
44675;BME280;30388;52.038;-1.478;2022-12-18T02:26:27;64376.43;;;-1.56;100.00
44675;BME280;30388;52.038;-1.478;2022-12-18T02:29:02;64400.33;;;-1.53;100.00
44675;BME280;30388;52.038;-1.478;2022-12-18T02:31:35;64308.62;;;-2.44;100.00
44675;BME280;30388;52.038;-1.478;2022-12-18T02:34:05;64207.89;;;-3.29;100.00
44675;BME280;30388;52.038;-1.478;2022-12-18T02:36:38;64258.34;;;-2.63;100.00
44675;BME280;30388;52.038;-1.478;2022-12-18T02:39:09;64221.32;;;-3.11;100.00
44675;BME280;30388;52.038;-1.478;2022-12-18T02:41:38;64207.31;;;-3.28;100.00
44675;BME280;30388;52.038;-1.478;2022-12-18T02:44:08;64191.79;;;-3.22;100.00
44675;BME280;30388;52.038;-1.478;2022-12-18T02:46:39;64189.80;;;-3.03;100.00
44675;BME280;30388;52.038;-1.478;2022-12-18T02:49:22;64181.47;;;-3.35;100.00
44675;BME280;30388;52.038;-1.478;2022-12-18T02:52:01;64155.87;;;-3.46;100.00
44675;BME280;30388;52.038;-1.478;2022-12-18T02:54:49;64145.06;;;-3.59;100.00
44675;BME280;30388;52.038;-1.478;2022-12-18T02:57:27;64181.08;;;-3.36;100.00
44675;BME280;30388;52.038;-1.478;2022-12-18T03:00:04;64163.04;;;-3.37;100.00
44675;BME280;30388;52.038;-1.478;2022-12-18T03:02:39;64177.48;;;-3.18;100.00
44675;BME280;30388;52.038;-1.478;2022-12-18T03:05:13;64223.76;;;-2.58;100.00
44675;BME280;30388;52.038;-1.478;2022-12-18T03:07:46;64207.20;;;-3.28;100.00
44675;BME280;30388;52.038;-1.478;2022-12-18T03:10:21;64196.41;;;-2.93;100.00
44675;BME280;30388;52.038;-1.478;2022-12-18T03:12:53;64235.30;;;-2.92;100.00
44675;BME280;30388;52.038;-1.478;2022-12-18T03:15:28;64246.99;;;-2.77;100.00
44675;BME280;30388;52.038;-1.478;2022-12-18T03:18:02;64245.71;;;-2.79;100.00
44675;BME280;30388;52.038;-1.478;2022-12-18T03:20:34;64198.00;;;-2.91;100.00
44675;BME280;30388;52.038;-1.478;2022-12-18T03:23:07;64198.56;;;-2.90;100.00
44675;BME280;30388;52.038;-1.478;2022-12-18T03:25:40;64212.02;;;-3.22;100.00
44675;BME280;30388;52.038;-1.478;2022-12-18T03:28:13;64250.87;;;-2.72;100.00
44675;BME280;30388;52.038;-1.478;2022-12-18T03:30:44;64262.52;;;-2.57;100.00
44675;BME280;30388;52.038;-1.478;2022-12-18T03:33:16;64257.62;;;-2.64;100.00
44675;BME280;30388;52.038;-1.478;2022-12-18T03:35:45;64199.41;;;-2.90;100.00
44675;BME280;30388;52.038;-1.478;2022-12-18T03:38:13;64181.12;;;-3.14;100.00
44675;BME280;30388;52.038;-1.478;2022-12-18T03:40:50;64174.25;;;-3.22;100.00
44675;BME280;30388;52.038;-1.478;2022-12-18T03:43:25;64201.86;;;-3.09;100.00
44675;BME280;30388;52.038;-1.478;2022-12-18T03:46:02;64162.74;;;-3.36;100.00
44675;BME280;30388;52.038;-1.478;2022-12-18T03:48:34;64220.40;;;-2.62;100.00
44675;BME280;30388;52.038;-1.478;2022-12-18T03:51:09;64266.80;;;-2.52;100.00
44675;BME280;30388;52.038;-1.478;2022-12-18T03:53:41;64199.07;;;-2.90;100.00
44675;BME280;30388;52.038;-1.478;2022-12-18T03:56:12;64244.31;;;-2.81;100.00
44675;BME280;30388;52.038;-1.478;2022-12-18T03:58:41;64245.84;;;-2.79;100.00
44675;BME280;30388;52.038;-1.478;2022-12-18T04:01:13;64213.44;;;-2.72;100.00
44675;BME280;30388;52.038;-1.478;2022-12-18T04:03:43;64208.43;;;-3.00;100.00
44675;BME280;30388;52.038;-1.478;2022-12-18T04:06:12;64161.66;;;-3.38;100.00
44675;BME280;30388;52.038;-1.478;2022-12-18T04:08:39;64168.18;;;-3.30;100.00
44675;BME280;30388;52.038;-1.478;2022-12-18T04:11:07;64196.09;;;-2.94;100.00
44675;BME280;30388;52.038;-1.478;2022-12-18T04:13:37;64198.00;;;-3.40;100.00
44675;BME280;30388;52.038;-1.478;2022-12-18T04:16:05;64197.84;;;-2.92;100.00
44675;BME280;30388;52.038;-1.478;2022-12-18T04:18:31;64173.71;;;-3.23;100.00
44675;BME280;30388;52.038;-1.478;2022-12-18T04:20:59;64234.17;;;-2.94;100.00
44675;BME280;30388;52.038;-1.478;2022-12-18T04:23:25;64200.95;;;-2.87;100.00
44675;BME280;30388;52.038;-1.478;2022-12-18T04:25:53;64199.16;;;-2.90;100.00
44675;BME280;30388;52.038;-1.478;2022-12-18T04:28:20;64176.96;;;-3.18;100.00
44675;BME280;30388;52.038;-1.478;2022-12-18T04:30:48;64186.29;;;-3.06;100.00
44675;BME280;30388;52.038;-1.478;2022-12-18T04:33:17;64190.88;;;-3.00;100.00
44675;BME280;30388;52.038;-1.478;2022-12-18T04:35:45;64183.48;;;-3.10;100.00
44675;BME280;30388;52.038;-1.478;2022-12-18T04:38:12;64205.23;;;-2.82;100.00
44675;BME280;30388;52.038;-1.478;2022-12-18T04:40:40;64217.98;;;-2.66;100.00
44675;BME280;30388;52.038;-1.478;2022-12-18T04:43:07;64192.98;;;-2.71;100.00
44675;BME280;30388;52.038;-1.478;2022-12-18T04:45:35;64140.24;;;-3.39;100.00
44675;BME280;30388;52.038;-1.478;2022-12-18T04:48:03;64148.90;;;-3.28;100.00
44675;BME280;30388;52.038;-1.478;2022-12-18T04:50:31;64140.31;;;-3.39;100.00
44675;BME280;30388;52.038;-1.478;2022-12-18T04:52:58;64117.98;;;-3.45;100.00
44675;BME280;30388;52.038;-1.478;2022-12-18T04:55:26;64120.17;;;-3.42;100.00
44675;BME280;30388;52.038;-1.478;2022-12-18T04:57:54;64144.41;;;-3.33;100.00
44675;BME280;30388;52.038;-1.478;2022-12-18T05:00:22;64135.04;;;-3.45;100.00
44675;BME280;30388;52.038;-1.478;2022-12-18T05:02:49;64109.72;;;-3.56;100.00
44675;BME280;30388;52.038;-1.478;2022-12-18T05:05:17;64099.36;;;-3.91;100.00
44675;BME280;30388;52.038;-1.478;2022-12-18T05:07:44;64107.36;;;-3.59;100.00
44675;BME280;30388;52.038;-1.478;2022-12-18T05:10:12;64103.81;;;-3.15;100.00
44675;BME280;30388;52.038;-1.478;2022-12-18T05:12:38;64106.82;;;-3.59;100.00
44675;BME280;30388;52.038;-1.478;2022-12-18T05:15:07;64102.92;;;-3.42;100.00
44675;BME280;30388;52.038;-1.478;2022-12-18T05:17:35;64105.14;;;-3.61;100.00
44675;BME280;30388;52.038;-1.478;2022-12-18T05:20:02;64081.62;;;-3.69;100.00
44675;BME280;30388;52.038;-1.478;2022-12-18T05:22:29;64081.42;;;-3.70;100.00
44675;BME280;30388;52.038;-1.478;2022-12-18T05:24:57;64102.66;;;-3.64;100.00
44675;BME280;30388;52.038;-1.478;2022-12-18T05:27:24;64110.43;;;-3.55;100.00
44675;BME280;30388;52.038;-1.478;2022-12-18T05:29:51;64123.63;;;-3.38;100.00
44675;BME280;30388;52.038;-1.478;2022-12-18T05:32:18;64130.90;;;-3.51;100.00
44675;BME280;30388;52.038;-1.478;2022-12-18T05:34:45;64136.92;;;-3.43;100.00
44675;BME280;30388;52.038;-1.478;2022-12-18T05:37:13;64137.54;;;-3.41;100.00
44675;BME280;30388;52.038;-1.478;2022-12-18T05:39:40;64157.42;;;-3.16;100.00
44675;BME280;30388;52.038;-1.478;2022-12-18T05:42:07;64188.40;;;-3.03;100.00
44675;BME280;30388;52.038;-1.478;2022-12-18T05:44:34;64184.63;;;-3.09;100.00
44675;BME280;30388;52.038;-1.478;2022-12-18T05:47:01;64183.85;;;-3.09;100.00
44675;BME280;30388;52.038;-1.478;2022-12-18T05:49:29;64198.75;;;-2.90;100.00
44675;BME280;30388;52.038;-1.478;2022-12-18T05:51:56;64199.62;;;-2.89;100.00
44675;BME280;30388;52.038;-1.478;2022-12-18T05:54:23;64200.95;;;-2.88;100.00
44675;BME280;30388;52.038;-1.478;2022-12-18T05:56:50;64222.14;;;-2.60;100.00
44675;BME280;30388;52.038;-1.478;2022-12-18T05:59:17;64181.47;;;-2.86;100.00
44675;BME280;30388;52.038;-1.478;2022-12-18T06:01:44;64191.63;;;-3.00;100.00
44675;BME280;30388;52.038;-1.478;2022-12-18T06:04:11;64192.75;;;-2.98;100.00
44675;BME280;30388;52.038;-1.478;2022-12-18T06:06:38;64168.14;;;-3.03;100.00
44675;BME280;30388;52.038;-1.478;2022-12-18T06:09:05;64164.98;;;-3.08;100.00
44675;BME280;30388;52.038;-1.478;2022-12-18T06:11:32;64157.38;;;-2.95;100.00
44675;BME280;30388;52.038;-1.478;2022-12-18T06:14:00;64177.83;;;-2.91;100.00
44675;BME280;30388;52.038;-1.478;2022-12-18T06:16:28;64166.65;;;-3.05;100.00
44675;BME280;30388;52.038;-1.478;2022-12-18T06:18:56;64165.94;;;-3.06;100.00
44675;BME280;30388;52.038;-1.478;2022-12-18T06:21:23;64152.31;;;-3.23;100.00
44675;BME280;30388;52.038;-1.478;2022-12-18T06:23:50;64163.52;;;-3.10;100.00
44675;BME280;30388;52.038;-1.478;2022-12-18T06:26:17;64166.42;;;-2.84;100.00
44675;BME280;30388;52.038;-1.478;2022-12-18T06:28:44;64155.09;;;-3.20;100.00
44675;BME280;30388;52.038;-1.478;2022-12-18T06:31:11;64182.79;;;-2.84;100.00
44675;BME280;30388;52.038;-1.478;2022-12-18T06:33:39;64163.95;;;-3.08;100.00
44675;BME280;30388;52.038;-1.478;2022-12-18T06:36:09;64164.78;;;-3.08;100.00
44675;BME280;30388;52.038;-1.478;2022-12-18T06:38:38;64164.38;;;-2.86;100.00
44675;BME280;30388;52.038;-1.478;2022-12-18T06:41:07;64150.41;;;-3.27;100.00
44675;BME280;30388;52.038;-1.478;2022-12-18T06:43:35;64175.58;;;-3.43;100.00
44675;BME280;30388;52.038;-1.478;2022-12-18T06:46:03;64206.28;;;-2.81;100.00
44675;BME280;30388;52.038;-1.478;2022-12-18T06:48:31;64220.22;;;-2.63;100.00
44675;BME280;30388;52.038;-1.478;2022-12-18T06:50:59;64196.90;;;-2.94;100.00
44675;BME280;30388;52.038;-1.478;2022-12-18T06:53:26;64176.63;;;-2.70;100.00
44675;BME280;30388;52.038;-1.478;2022-12-18T06:56:00;64188.17;;;-2.78;100.00
44675;BME280;30388;52.038;-1.478;2022-12-18T06:58:27;64167.84;;;-3.03;100.00
44675;BME280;30388;52.038;-1.478;2022-12-18T07:00:59;64194.42;;;-2.69;100.00
44675;BME280;30388;52.038;-1.478;2022-12-18T07:03:27;64184.24;;;-2.82;100.00
44675;BME280;30388;52.038;-1.478;2022-12-18T07:05:54;64179.38;;;-3.16;100.00
44675;BME280;30388;52.038;-1.478;2022-12-18T07:08:20;64158.36;;;-2.93;100.00
44675;BME280;30388;52.038;-1.478;2022-12-18T07:10:47;64154.83;;;-2.98;100.00
44675;BME280;30388;52.038;-1.478;2022-12-18T07:13:15;64163.24;;;-2.88;100.00
44675;BME280;30388;52.038;-1.478;2022-12-18T07:15:43;64177.51;;;-2.90;100.00
44675;BME280;30388;52.038;-1.478;2022-12-18T07:18:11;64176.29;;;-2.91;100.00
44675;BME280;30388;52.038;-1.478;2022-12-18T07:20:38;64181.30;;;-2.63;100.00
44675;BME280;30388;52.038;-1.478;2022-12-18T07:23:05;64209.12;;;-2.51;100.00
44675;BME280;30388;52.038;-1.478;2022-12-18T07:25:33;64211.75;;;-2.47;100.00
44675;BME280;30388;52.038;-1.478;2022-12-18T07:28:01;64215.04;;;-2.70;100.00
44675;BME280;30388;52.038;-1.478;2022-12-18T07:30:27;64237.13;;;-2.41;100.00
44675;BME280;30388;52.038;-1.478;2022-12-18T07:32:55;64257.28;;;-2.38;100.00
44675;BME280;30388;52.038;-1.478;2022-12-18T07:35:22;64242.27;;;-2.34;100.00
44675;BME280;30388;52.038;-1.478;2022-12-18T07:37:49;64238.09;;;-2.40;100.00
44675;BME280;30388;52.038;-1.478;2022-12-18T07:40:16;64256.30;;;-2.16;100.00
44675;BME280;30388;52.038;-1.478;2022-12-18T07:42:43;64240.56;;;-2.36;100.00
44675;BME280;30388;52.038;-1.478;2022-12-18T07:45:10;64254.06;;;-2.19;100.00
44675;BME280;30388;52.038;-1.478;2022-12-18T07:47:37;64244.36;;;-2.31;100.00
44675;BME280;30388;52.038;-1.478;2022-12-18T07:50:05;64241.22;;;-2.09;100.00
44675;BME280;30388;52.038;-1.478;2022-12-18T07:52:32;64240.65;;;-2.36;100.00
44675;BME280;30388;52.038;-1.478;2022-12-18T07:54:58;64277.18;;;-2.38;100.00
44675;BME280;30388;52.038;-1.478;2022-12-18T07:57:25;64382.66;;;-1.74;100.00
44675;BME280;30388;52.038;-1.478;2022-12-18T07:59:53;64337.75;;;-1.61;100.00
44675;BME280;30388;52.038;-1.478;2022-12-18T08:02:20;64321.82;;;-1.55;100.00
44675;BME280;30388;52.038;-1.478;2022-12-18T08:04:47;64305.48;;;-2.02;100.00
44675;BME280;30388;52.038;-1.478;2022-12-18T08:07:14;64273.22;;;-1.95;100.00
44675;BME280;30388;52.038;-1.478;2022-12-18T08:09:41;64254.37;;;-2.19;100.00
44675;BME280;30388;52.038;-1.478;2022-12-18T08:12:09;64260.55;;;-2.11;100.00
44675;BME280;30388;52.038;-1.478;2022-12-18T08:14:36;64254.95;;;-2.19;100.00
44675;BME280;30388;52.038;-1.478;2022-12-18T08:17:03;64304.93;;;-2.03;100.00
44675;BME280;30388;52.038;-1.478;2022-12-18T08:19:30;64353.38;;;-1.41;100.00
44675;BME280;30388;52.038;-1.478;2022-12-18T08:21:57;64385.26;;;-1.44;100.00
44675;BME280;30388;52.038;-1.478;2022-12-18T08:24:25;64336.91;;;-1.62;100.00
44675;BME280;30388;52.038;-1.478;2022-12-18T08:26:52;64336.98;;;-1.61;100.00
44675;BME280;30388;52.038;-1.478;2022-12-18T08:29:19;64383.65;;;-1.47;100.00
44675;BME280;30388;52.038;-1.478;2022-12-18T08:31:46;64396.59;;;-1.30;100.00
44675;BME280;30388;52.038;-1.478;2022-12-18T08:34:13;64382.41;;;-1.48;100.00
44675;BME280;30388;52.038;-1.478;2022-12-18T08:36:40;64372.98;;;-1.39;100.00
44675;BME280;30388;52.038;-1.478;2022-12-18T08:39:06;64413.49;;;-1.08;100.00
44675;BME280;30388;52.038;-1.478;2022-12-18T08:41:33;64443.48;;;-0.70;100.00
44675;BME280;30388;52.038;-1.478;2022-12-18T08:44:00;64487.03;;;-0.40;100.00
44675;BME280;30388;52.038;-1.478;2022-12-18T08:46:32;64487.35;;;-0.62;100.00
44675;BME280;30388;52.038;-1.478;2022-12-18T08:49:00;64487.57;;;-0.62;100.00
44675;BME280;30388;52.038;-1.478;2022-12-18T08:51:27;64482.51;;;-0.69;100.00
44675;BME280;30388;52.038;-1.478;2022-12-18T08:53:55;64536.25;;;-0.23;100.00
44675;BME280;30388;52.038;-1.478;2022-12-18T08:56:22;64482.80;;;-0.69;100.00
44675;BME280;30388;52.038;-1.478;2022-12-18T08:58:51;64496.40;;;-0.51;100.00
44675;BME280;30388;52.038;-1.478;2022-12-18T09:01:20;64500.93;;;-0.45;100.00
44675;BME280;30388;52.038;-1.478;2022-12-18T09:03:47;64490.36;;;-0.59;100.00
44675;BME280;30388;52.038;-1.478;2022-12-18T09:06:15;64445.01;;;-0.68;100.00
44675;BME280;30388;52.038;-1.478;2022-12-18T09:08:42;64451.33;;;-0.60;100.00
44675;BME280;30388;52.038;-1.478;2022-12-18T09:11:14;64405.70;;;-1.18;100.00
44675;BME280;30388;52.038;-1.478;2022-12-18T09:13:42;64409.38;;;-0.92;100.00
44675;BME280;30388;52.038;-1.478;2022-12-18T09:16:09;64412.50;;;-1.09;100.00
44675;BME280;30388;52.038;-1.478;2022-12-18T09:18:36;64363.89;;;-1.27;100.00
44675;BME280;30388;52.038;-1.478;2022-12-18T09:21:13;64365.49;;;-1.25;100.00
44675;BME280;30388;52.038;-1.478;2022-12-18T09:23:40;64360.81;;;-1.31;100.00
44675;BME280;30388;52.038;-1.478;2022-12-18T09:26:08;64353.36;;;-1.41;100.00
44675;BME280;30388;52.038;-1.478;2022-12-18T09:28:36;64347.92;;;-1.48;100.00
44675;BME280;30388;52.038;-1.478;2022-12-18T09:31:05;64305.71;;;-1.75;100.00
44675;BME280;30388;52.038;-1.478;2022-12-18T09:33:33;64317.23;;;-1.61;100.00
44675;BME280;30388;52.038;-1.478;2022-12-18T09:36:02;64333.89;;;-1.66;100.00
44675;BME280;30388;52.038;-1.478;2022-12-18T09:38:30;64337.55;;;-1.62;100.00
44675;BME280;30388;52.038;-1.478;2022-12-18T09:41:00;64340.11;;;-1.59;100.00
44675;BME280;30388;52.038;-1.478;2022-12-18T09:43:35;64322.15;;;-1.32;100.00
44675;BME280;30388;52.038;-1.478;2022-12-18T09:46:08;64307.20;;;-1.73;100.00
44675;BME280;30388;52.038;-1.478;2022-12-18T09:48:40;64287.68;;;-1.77;100.00
44675;BME280;30388;52.038;-1.478;2022-12-18T09:51:13;64296.18;;;-1.65;100.00
44675;BME280;30388;52.038;-1.478;2022-12-18T09:53:47;64290.60;;;-1.73;100.00
44675;BME280;30388;52.038;-1.478;2022-12-18T09:56:19;64309.53;;;-1.71;100.00
44675;BME280;30388;52.038;-1.478;2022-12-18T09:58:51;64314.69;;;-1.91;100.00
44675;BME280;30388;52.038;-1.478;2022-12-18T10:01:22;64313.44;;;-1.92;100.00
44675;BME280;30388;52.038;-1.478;2022-12-18T10:03:49;64312.93;;;-1.44;100.00
44675;BME280;30388;52.038;-1.478;2022-12-18T10:06:23;64325.67;;;-1.77;100.00
44675;BME280;30388;52.038;-1.478;2022-12-18T10:08:58;64310.51;;;-1.69;100.00
44675;BME280;30388;52.038;-1.478;2022-12-18T10:11:38;64296.09;;;-1.65;100.00
44675;BME280;30388;52.038;-1.478;2022-12-18T10:14:15;64290.53;;;-1.73;100.00
44675;BME280;30388;52.038;-1.478;2022-12-18T10:16:56;64279.39;;;-1.87;100.00
44675;BME280;30388;52.038;-1.478;2022-12-18T10:19:34;64297.94;;;-1.64;100.00
44675;BME280;30388;52.038;-1.478;2022-12-18T10:22:11;64287.54;;;-1.77;100.00
44675;BME280;30388;52.038;-1.478;2022-12-18T10:24:46;64314.88;;;-1.91;100.00
44675;BME280;30388;52.038;-1.478;2022-12-18T10:27:21;64313.25;;;-1.66;100.00
44675;BME280;30388;52.038;-1.478;2022-12-18T10:29:49;64310.49;;;-1.47;100.00
44675;BME280;30388;52.038;-1.478;2022-12-18T10:32:19;64315.36;;;-1.90;100.00
44675;BME280;30388;52.038;-1.478;2022-12-18T10:34:48;64303.86;;;-1.78;100.00
44675;BME280;30388;52.038;-1.478;2022-12-18T10:37:17;64303.45;;;-1.79;100.00
44675;BME280;30388;52.038;-1.478;2022-12-18T10:39:45;64286.81;;;-1.78;100.00
44675;BME280;30388;52.038;-1.478;2022-12-18T10:42:17;64312.23;;;-1.93;100.00
44675;BME280;30388;52.038;-1.478;2022-12-18T10:44:46;64305.39;;;-2.02;100.00
44675;BME280;30388;52.038;-1.478;2022-12-18T10:47:27;64301.27;;;-1.59;100.00
44675;BME280;30388;52.038;-1.478;2022-12-18T10:49:54;64310.79;;;-1.69;100.00
44675;BME280;30388;52.038;-1.478;2022-12-18T10:52:22;64306.70;;;-1.75;100.00
44675;BME280;30388;52.038;-1.478;2022-12-18T10:54:53;64334.73;;;-1.65;100.00
44675;BME280;30388;52.038;-1.478;2022-12-18T10:57:32;64364.46;;;-1.26;100.00
44675;BME280;30388;52.038;-1.478;2022-12-18T11:00:20;64439.39;;;-1.02;100.00
44675;BME280;30388;52.038;-1.478;2022-12-18T11:02:48;64437.38;;;-0.77;100.00
44675;BME280;30388;52.038;-1.478;2022-12-18T11:05:28;64441.44;;;-0.72;100.00
44675;BME280;30388;52.038;-1.478;2022-12-18T11:07:56;64424.81;;;-0.94;100.00
44675;BME280;30388;52.038;-1.478;2022-12-18T11:10:29;64433.16;;;-1.55;100.00
44675;BME280;30388;52.038;-1.478;2022-12-18T11:13:10;64446.87;;;-0.65;100.00
44675;BME280;30388;52.038;-1.478;2022-12-18T11:15:40;64465.35;;;-0.91;100.00
44675;BME280;30388;52.038;-1.478;2022-12-18T11:18:16;64482.28;;;-0.69;100.00
44675;BME280;30388;52.038;-1.478;2022-12-18T11:20:50;64450.60;;;-0.87;100.00
44675;BME280;30388;52.038;-1.478;2022-12-18T11:23:20;64409.54;;;-1.13;100.00
44675;BME280;30388;52.038;-1.478;2022-12-18T11:25:52;64418.35;;;-0.79;100.00
44675;BME280;30388;52.038;-1.478;2022-12-18T11:28:36;64433.09;;;-0.83;100.00
44675;BME280;30388;52.038;-1.478;2022-12-18T11:31:17;64408.28;;;-1.15;100.00
44675;BME280;30388;52.038;-1.478;2022-12-18T11:33:49;64384.30;;;-1.01;100.00
44675;BME280;30388;52.038;-1.478;2022-12-18T11:36:19;64397.78;;;-0.84;100.00
44675;BME280;30388;52.038;-1.478;2022-12-18T11:38:47;64388.94;;;-0.95;100.00
44675;BME280;30388;52.038;-1.478;2022-12-18T11:41:23;64405.72;;;-1.18;100.00
44675;BME280;30388;52.038;-1.478;2022-12-18T11:43:55;64425.24;;;-0.94;100.00
44675;BME280;30388;52.038;-1.478;2022-12-18T11:46:30;64409.97;;;-0.91;100.00
44675;BME280;30388;52.038;-1.478;2022-12-18T11:49:06;64403.24;;;-0.77;100.00
44675;BME280;30388;52.038;-1.478;2022-12-18T11:51:48;64414.53;;;-0.85;100.00
44675;BME280;30388;52.038;-1.478;2022-12-18T11:54:17;64368.96;;;-1.22;100.00
44675;BME280;30388;52.038;-1.478;2022-12-18T11:56:49;64372.48;;;-1.39;100.00
44675;BME280;30388;52.038;-1.478;2022-12-18T11:59:25;64401.50;;;-1.01;100.00
44675;BME280;30388;52.038;-1.478;2022-12-18T12:02:03;64385.50;;;-1.23;100.00
44675;BME280;30388;52.038;-1.478;2022-12-18T12:05:00;64373.18;;;-1.16;100.00
44675;BME280;30388;52.038;-1.478;2022-12-18T12:07:38;64387.59;;;-0.97;100.00
44675;BME280;30388;52.038;-1.478;2022-12-18T12:10:22;64371.91;;;-1.17;100.00
44675;BME280;30388;52.038;-1.478;2022-12-18T12:13:03;64365.79;;;-1.25;100.00
44675;BME280;30388;52.038;-1.478;2022-12-18T12:15:39;64390.98;;;-1.15;100.00
44675;BME280;30388;52.038;-1.478;2022-12-18T12:18:21;64367.79;;;-1.23;100.00
44675;BME280;30388;52.038;-1.478;2022-12-18T12:20:56;64380.95;;;-1.28;100.00
44675;BME280;30388;52.038;-1.478;2022-12-18T12:23:34;64414.94;;;-0.84;100.00
44675;BME280;30388;52.038;-1.478;2022-12-18T12:26:07;64406.16;;;-0.96;100.00
44675;BME280;30388;52.038;-1.478;2022-12-18T12:28:51;64401.18;;;-1.24;100.00
44675;BME280;30388;52.038;-1.478;2022-12-18T12:31:28;64393.83;;;-0.89;100.00
44675;BME280;30388;52.038;-1.478;2022-12-18T12:34:07;64394.67;;;-0.89;100.00
44675;BME280;30388;52.038;-1.478;2022-12-18T12:36:46;64383.57;;;-1.03;100.00
44675;BME280;30388;52.038;-1.478;2022-12-18T12:39:20;64395.09;;;-1.10;100.00
44675;BME280;30388;52.038;-1.478;2022-12-18T12:41:49;64433.94;;;-0.60;100.00
44675;BME280;30388;52.038;-1.478;2022-12-18T12:44:20;64474.07;;;-0.80;100.00
44675;BME280;30388;52.038;-1.478;2022-12-18T12:46:50;64499.27;;;-0.48;100.00
44675;BME280;30388;52.038;-1.478;2022-12-18T12:49:21;64492.77;;;-0.56;100.00
44675;BME280;30388;52.038;-1.478;2022-12-18T12:51:58;64480.28;;;-0.72;100.00
44675;BME280;30388;52.038;-1.478;2022-12-18T12:54:27;64488.37;;;-0.40;100.00
44675;BME280;30388;52.038;-1.478;2022-12-18T12:56:59;64474.00;;;-0.31;100.00